Time;durP1;ratioP1;P1;durP2;ratioP2;P2;SDS_P1;SDS_P2;PMS_P1;PMS_P2;Temp;Humidity;BMP_temperature;BMP_pressure;BME280_temperature;BME280_humidity;BME280_pressure;Samples;Min_cycle;Max_cycle;Signal;HPM_P1;HPM_P2
2021/04/17 00:01:59;;;;;;;0.30;0.20;;;;;;;4.76;92.25;101020.56;5066079;28;20864;-57
2021/04/17 00:04:28;;;;;;;0.30;0.20;;;;;;;4.68;92.13;101020.53;5062704;28;20950;-57
2021/04/17 00:06:54;;;;;;;0.30;0.10;;;;;;;4.51;92.24;101014.22;5058640;28;20446;-57
2021/04/17 00:09:25;;;;;;;0.30;0.20;;;;;;;4.65;91.93;101019.59;5067159;28;20942;-58
2021/04/17 00:11:53;;;;;;;0.30;0.20;;;;;;;4.50;91.98;101016.84;5062675;28;20442;-58
2021/04/17 00:14:22;;;;;;;1.17;1.07;;;;;;;4.53;92.36;101015.16;5064757;28;20500;-58
2021/04/17 00:17:08;;;;;;;0.30;0.20;;;;;;;4.43;92.68;101006.31;5051854;28;21030;-58
2021/04/17 00:19:36;;;;;;;0.27;0.20;;;;;;;4.34;92.41;101002.69;5074291;28;20513;-58
2021/04/17 00:22:03;;;;;;;0.30;0.20;;;;;;;4.37;92.91;100994.81;5064378;28;20454;-58
2021/04/17 00:24:29;;;;;;;0.30;0.10;;;;;;;4.31;93.17;101000.06;5062352;28;20458;-58
2021/04/17 00:26:55;;;;;;;0.30;0.10;;;;;;;4.38;93.37;100999.22;5067479;28;20458;-58
2021/04/17 00:29:22;;;;;;;0.20;0.10;;;;;;;4.31;92.68;100990.41;5069198;28;20458;-58
2021/04/17 00:31:48;;;;;;;0.30;0.20;;;;;;;4.46;92.32;100987.88;5061601;28;20445;-58
2021/04/17 00:34:15;;;;;;;0.30;0.20;;;;;;;4.23;92.93;100991.19;5069074;28;20441;-58
2021/04/17 00:36:41;;;;;;;0.20;0.20;;;;;;;4.25;93.35;100985.09;5066137;28;20871;-58
2021/04/17 00:39:07;;;;;;;0.30;0.20;;;;;;;4.30;93.32;100990.41;5065151;28;20490;-58
2021/04/17 00:41:35;;;;;;;0.30;0.20;;;;;;;4.33;93.51;100986.03;5067736;28;20450;-57
2021/04/17 00:44:02;;;;;;;0.30;0.20;;;;;;;4.35;93.70;100981.66;5068819;28;20458;-57
2021/04/17 00:46:29;;;;;;;0.30;0.20;;;;;;;4.24;94.24;100978.06;5064697;28;20495;-58
2021/04/17 00:48:55;;;;;;;0.30;0.20;;;;;;;4.27;94.31;100980.72;5062183;28;20549;-58
2021/04/17 00:51:21;;;;;;;0.43;0.43;;;;;;;4.24;94.14;100985.94;5066345;28;20512;-57
2021/04/17 00:53:49;;;;;;;0.30;0.20;;;;;;;4.25;94.61;100979.84;5068985;28;20453;-58
2021/04/17 00:56:18;;;;;;;0.30;0.20;;;;;;;4.45;93.73;100985.25;5064541;28;20515;-58
2021/04/17 00:58:45;;;;;;;0.40;0.40;;;;;;;4.35;94.17;100981.66;5061531;28;20877;-58
2021/04/17 01:01:11;;;;;;;0.30;0.10;;;;;;;4.26;94.86;100976.34;5069863;28;20526;-58
2021/04/17 01:03:46;;;;;;;0.30;0.10;;;;;;;4.34;94.08;100981.66;5062231;28;20507;-57
2021/04/17 01:06:42;;;;;;;0.30;0.20;;;;;;;4.37;94.43;100971.13;5063750;28;20503;-58
2021/04/17 01:09:14;;;;;;;0.30;0.10;;;;;;;4.29;94.38;100964.97;5052206;28;20531;-58
2021/04/17 01:11:45;;;;;;;0.30;0.10;;;;;;;4.27;94.63;100971.97;5062362;28;20934;-58
2021/04/17 01:14:16;;;;;;;0.30;0.20;;;;;;;4.05;96.05;100973.50;5064471;28;20450;-58
2021/04/17 01:16:44;;;;;;;0.30;0.20;;;;;;;4.14;95.40;100974.50;5063575;28;20820;-58
2021/04/17 01:19:17;;;;;;;0.30;0.20;;;;;;;4.07;95.46;100970.03;5046449;28;20525;-58
2021/04/17 01:21:44;;;;;;;0.97;0.97;;;;;;;3.98;95.61;100974.34;5068444;28;20462;-57
2021/04/17 01:24:21;;;;;;;0.30;0.10;;;;;;;3.76;96.25;100978.50;5067123;28;20454;-58
2021/04/17 01:26:48;;;;;;;0.30;0.10;;;;;;;3.60;96.84;100985.34;5066596;28;20505;-58
2021/04/17 01:29:14;;;;;;;0.30;0.20;;;;;;;3.60;97.31;100977.47;5069156;28;20547;-57
2021/04/17 01:31:41;;;;;;;0.30;0.20;;;;;;;3.52;96.66;100972.09;5060230;28;20446;-58
2021/04/17 01:34:08;;;;;;;0.30;0.10;;;;;;;3.47;97.38;100981.69;5068057;28;20446;-57
2021/04/17 01:36:37;;;;;;;0.30;0.20;;;;;;;3.36;97.12;100969.31;5061908;28;20942;-58
2021/04/17 01:39:09;;;;;;;0.30;0.20;;;;;;;3.40;96.94;100973.72;5060762;28;20995;-58
2021/04/17 01:41:43;;;;;;;0.30;0.20;;;;;;;3.35;96.25;100973.66;5063219;28;20458;-57
2021/04/17 01:44:21;;;;;;;0.30;0.10;;;;;;;3.33;95.81;100972.78;5066093;28;20441;-57
2021/04/17 01:46:50;;;;;;;0.30;0.13;;;;;;;3.32;95.19;100968.38;5066032;28;20445;-57
2021/04/17 01:49:19;;;;;;;0.30;0.20;;;;;;;3.17;95.22;100971.72;5062586;28;20434;-57
2021/04/17 01:51:47;;;;;;;0.30;0.10;;;;;;;3.09;96.28;100965.47;5062718;28;20500;-57
2021/04/17 01:54:22;;;;;;;0.30;0.20;;;;;;;3.21;95.48;100964.75;5067754;28;20512;-57
2021/04/17 01:56:51;;;;;;;0.30;0.10;;;;;;;3.07;96.29;100968.94;5067417;28;20515;-57
2021/04/17 01:59:20;;;;;;;0.30;0.10;;;;;;;3.04;95.46;100961.91;5067037;28;20532;-57
2021/04/17 02:01:47;;;;;;;0.30;0.20;;;;;;;3.14;96.60;100955.91;5062896;28;20450;-57
2021/04/17 02:04:13;;;;;;;0.30;0.10;;;;;;;3.10;96.10;100966.34;5063140;28;20557;-57
2021/04/17 02:06:40;;;;;;;0.20;0.20;;;;;;;3.17;96.13;100968.22;5058558;28;20450;-57
2021/04/17 02:09:06;;;;;;;0.20;0.10;;;;;;;3.02;97.11;100965.41;5062261;28;20466;-57
2021/04/17 02:11:33;;;;;;;0.27;0.20;;;;;;;3.03;96.88;100969.78;5060246;28;20542;-57
2021/04/17 02:14:00;;;;;;;0.30;0.20;;;;;;;3.07;96.49;100969.84;5065220;28;20509;-57
2021/04/17 02:16:52;;;;;;;0.30;0.10;;;;;;;2.80;97.52;100972.09;5067550;28;20446;-57
2021/04/17 02:19:26;;;;;;;0.20;0.10;;;;;;;2.65;96.66;100972.75;5059169;28;20543;-57
2021/04/17 02:21:57;;;;;;;0.20;0.20;;;;;;;2.59;97.14;100968.28;5060117;28;20450;-57
2021/04/17 02:24:27;;;;;;;0.20;0.20;;;;;;;2.50;97.35;100964.66;5060022;28;20451;-57
2021/04/17 02:26:53;;;;;;;0.20;0.10;;;;;;;2.49;97.97;100966.41;5066068;28;21020;-57
2021/04/17 02:29:21;;;;;;;0.30;0.10;;;;;;;2.43;97.88;100966.28;5066432;28;20512;-58
2021/04/17 02:31:47;;;;;;;0.20;0.10;;;;;;;2.45;97.91;100961.06;5060746;28;20508;-57
2021/04/17 02:34:14;;;;;;;0.20;0.10;;;;;;;2.49;97.14;100961.16;5067448;28;20449;-57
2021/04/17 02:36:40;;;;;;;0.20;0.10;;;;;;;2.34;97.91;100958.31;5061007;28;20447;-57
2021/04/17 02:39:07;;;;;;;0.30;0.20;;;;;;;2.32;97.73;100957.38;5060046;28;20494;-57
2021/04/17 02:41:33;;;;;;;0.30;0.20;;;;;;;2.37;97.64;100958.34;5066491;28;20578;-57
2021/04/17 02:43:59;;;;;;;0.20;0.10;;;;;;;2.38;97.67;100963.59;5066579;28;20508;-57
2021/04/17 02:46:25;;;;;;;0.30;0.20;;;;;;;2.35;98.28;100957.44;5061057;28;20987;-58
2021/04/17 02:48:52;;;;;;;0.30;0.20;;;;;;;2.27;98.17;100964.28;5059539;28;21156;-57
2021/04/17 02:51:18;;;;;;;0.20;0.20;;;;;;;2.29;97.51;100962.56;5065195;28;20446;-57
2021/04/17 02:53:46;;;;;;;0.20;0.10;;;;;;;2.38;98.35;100955.75;5066448;28;20479;-57
2021/04/17 02:56:12;;;;;;;0.20;0.20;;;;;;;2.41;98.19;100956.66;5061311;28;20449;-57
2021/04/17 02:58:38;;;;;;;0.30;0.10;;;;;;;2.51;99.41;100953.31;5059524;28;20528;-57
2021/04/17 03:01:04;;;;;;;0.30;0.20;;;;;;;2.57;98.44;100954.25;5067674;28;20869;-57
2021/04/17 03:03:30;;;;;;;0.30;0.20;;;;;;;2.66;98.42;100940.41;5058764;28;20458;-57
2021/04/17 03:05:56;;;;;;;0.20;0.10;;;;;;;2.91;97.93;100950.38;5063543;28;20459;-57
2021/04/17 03:08:23;;;;;;;0.20;0.10;;;;;;;2.92;97.74;100951.25;5055562;28;20475;-57
2021/04/17 03:10:49;;;;;;;0.30;0.30;;;;;;;2.97;97.77;100944.31;5067620;28;20960;-58
2021/04/17 03:13:15;;;;;;;0.23;0.10;;;;;;;2.97;98.14;100949.56;5068032;28;20450;-57
2021/04/17 03:15:42;;;;;;;0.20;0.13;;;;;;;2.91;99.68;100952.13;5062265;28;20495;-57
2021/04/17 03:18:08;;;;;;;0.20;0.10;;;;;;;3.03;98.73;100944.41;5057757;28;20584;-57
2021/04/17 03:20:34;;;;;;;0.20;0.10;;;;;;;3.07;99.06;100940.94;5063446;28;20569;-57
2021/04/17 03:23:00;;;;;;;0.20;0.10;;;;;;;3.19;98.42;100941.09;5065853;28;20454;-57
2021/04/17 03:25:27;;;;;;;0.20;0.10;;;;;;;3.23;98.31;100936.75;5062957;28;20495;-58
2021/04/17 03:27:53;;;;;;;0.20;0.10;;;;;;;3.25;99.54;100940.28;5059163;28;20988;-58
2021/04/17 03:30:26;;;;;;;0.20;0.10;;;;;;;3.36;98.10;100943.03;5062730;28;20448;-58
2021/04/17 03:32:57;;;;;;;0.30;0.30;;;;;;;3.35;99.14;100938.63;5061586;28;20462;-58
2021/04/17 03:35:24;;;;;;;0.20;0.10;;;;;;;3.26;100.00;100942.03;5060667;28;20818;-58
2021/04/17 03:37:50;;;;;;;0.20;0.20;;;;;;;3.54;99.33;100930.94;5065094;28;20474;-58
2021/04/17 03:40:17;;;;;;;0.20;0.10;;;;;;;3.45;100.00;100933.50;5061513;28;20493;-58
2021/04/17 03:42:43;;;;;;;0.20;0.10;;;;;;;3.54;99.34;100930.06;5057823;28;20823;-58
2021/04/17 03:45:11;;;;;;;0.20;0.10;;;;;;;3.60;99.66;100937.16;5060256;28;20458;-58
2021/04/17 03:47:39;;;;;;;0.20;0.10;;;;;;;3.65;98.70;100927.56;5063571;28;20471;-58
2021/04/17 03:50:07;;;;;;;0.30;0.20;;;;;;;3.70;99.41;100926.75;5063010;28;20449;-58
2021/04/17 03:52:34;;;;;;;0.20;0.10;;;;;;;3.74;98.38;100930.28;5057792;28;20450;-58
2021/04/17 03:55:00;;;;;;;0.43;0.43;;;;;;;3.83;99.03;100935.59;5059543;28;20443;-58
2021/04/17 03:57:26;;;;;;;0.30;0.10;;;;;;;3.88;99.21;100928.66;5064502;28;20886;-58
2021/04/17 03:59:52;;;;;;;0.30;0.10;;;;;;;3.80;100.00;100933.84;5058557;28;20586;-58
2021/04/17 04:02:19;;;;;;;0.20;0.10;;;;;;;3.71;100.00;100936.41;5064943;28;20508;-58
2021/04/17 04:04:45;;;;;;;0.20;0.20;;;;;;;3.81;100.00;100934.72;5063939;28;20461;-58
2021/04/17 04:07:11;;;;;;;0.20;0.10;;;;;;;3.94;100.00;100933.09;5051623;28;20512;-58
2021/04/17 04:09:37;;;;;;;0.30;0.20;;;;;;;4.12;99.32;100930.63;5064037;28;20793;-58
2021/04/17 04:12:07;;;;;;;0.20;0.20;;;;;;;4.12;98.33;100942.03;5057469;28;20978;-57
2021/04/17 04:14:33;;;;;;;0.30;0.10;;;;;;;4.01;98.90;100938.44;5058123;28;20451;-58
2021/04/17 04:17:00;;;;;;;1.13;1.13;;;;;;;4.05;98.70;100936.69;5057345;28;20996;-58
2021/04/17 04:19:26;;;;;;;0.20;0.13;;;;;;;4.16;98.24;100950.81;5057819;28;20941;-58
2021/04/17 04:21:52;;;;;;;0.50;0.50;;;;;;;4.13;99.27;100943.78;5064617;28;20455;-58
2021/04/17 04:24:18;;;;;;;0.20;0.10;;;;;;;4.07;98.60;100943.72;5063997;28;20965;-58
2021/04/17 04:26:45;;;;;;;0.30;0.20;;;;;;;4.05;99.47;100944.59;5057405;28;20969;-57
2021/04/17 04:29:11;;;;;;;0.20;0.10;;;;;;;4.04;99.31;100929.66;5036402;28;625314;-58
2021/04/17 04:31:37;;;;;;;0.30;0.20;;;;;;;4.00;99.11;100935.78;5065061;28;20633;-58
2021/04/17 04:34:03;;;;;;;0.20;0.13;;;;;;;3.98;98.78;100942.78;5058516;28;20823;-58
2021/04/17 04:36:29;;;;;;;0.20;0.10;;;;;;;4.22;98.53;100949.97;5058521;28;20458;-57
2021/04/17 04:38:56;;;;;;;0.30;0.20;;;;;;;4.07;99.63;100948.09;5058535;28;20544;-58
2021/04/17 04:41:22;;;;;;;0.30;0.20;;;;;;;4.23;99.24;100955.25;5065288;28;20450;-58
2021/04/17 04:43:48;;;;;;;0.30;0.10;;;;;;;4.04;99.87;100956.84;5064962;28;20931;-58
2021/04/17 04:46:14;;;;;;;0.30;0.20;;;;;;;4.03;100.00;100956.84;5058140;28;20941;-58
2021/04/17 04:48:40;;;;;;;0.20;0.10;;;;;;;4.02;100.00;100950.69;5058338;28;21010;-58
2021/04/17 04:51:07;;;;;;;2.10;1.90;;;;;;;4.09;100.00;100946.34;5066209;28;20446;-58
2021/04/17 04:53:33;;;;;;;0.20;0.20;;;;;;;4.29;99.04;100952.69;5068519;28;20454;-58
2021/04/17 04:55:59;;;;;;;0.20;0.20;;;;;;;4.07;100.00;100948.97;5061795;28;20450;-58
2021/04/17 04:58:25;;;;;;;0.30;0.20;;;;;;;3.99;100.00;100949.81;5062170;28;21045;-57
2021/04/17 05:00:51;;;;;;;0.30;0.20;;;;;;;4.11;100.00;100957.78;5069190;28;20485;-57
2021/04/17 05:03:18;;;;;;;0.20;0.10;;;;;;;4.15;100.00;100957.84;5062497;28;20446;-57
2021/04/17 05:05:44;;;;;;;0.20;0.10;;;;;;;4.18;99.84;100954.34;5067419;28;20454;-57
2021/04/17 05:08:10;;;;;;;0.20;0.10;;;;;;;4.13;99.52;100958.69;5055988;28;20470;-58
2021/04/17 05:10:36;;;;;;;0.30;0.20;;;;;;;4.25;99.56;100958.78;5067250;28;20447;-58
2021/04/17 05:13:02;;;;;;;0.30;0.20;;;;;;;4.34;98.91;100963.22;5068356;28;20873;-58
2021/04/17 05:15:29;;;;;;;0.20;0.10;;;;;;;4.49;98.36;100963.34;5062279;28;20446;-58
2021/04/17 05:17:55;;;;;;;0.20;0.10;;;;;;;4.68;97.03;100965.25;5061083;28;20471;-58
2021/04/17 05:20:21;;;;;;;0.30;0.10;;;;;;;5.09;95.23;100961.06;5067601;28;20521;-58
2021/04/17 05:22:48;;;;;;;0.20;0.20;;;;;;;5.23;92.91;100964.63;5068132;28;20446;-57
2021/04/17 05:25:14;;;;;;;0.30;0.10;;;;;;;5.37;92.50;100955.03;5062102;28;20499;-58
2021/04/17 05:27:40;;;;;;;0.30;0.20;;;;;;;5.47;91.04;100959.44;5060700;28;20516;-58
2021/04/17 05:30:07;;;;;;;0.30;0.10;;;;;;;5.67;90.63;100959.50;5066287;28;20447;-57
2021/04/17 05:32:33;;;;;;;0.20;0.10;;;;;;;5.63;90.26;100958.63;5061386;28;20454;-58
2021/04/17 05:35:00;;;;;;;0.30;0.20;;;;;;;5.82;89.82;100954.25;5067241;28;21003;-57
2021/04/17 05:37:26;;;;;;;0.20;0.10;;;;;;;5.63;90.29;100966.53;5067792;28;20987;-57
2021/04/17 05:39:52;;;;;;;0.30;0.10;;;;;;;5.68;89.58;100963.88;5061536;28;20497;-56
2021/04/17 05:42:18;;;;;;;0.30;0.10;;;;;;;5.51;90.17;100968.25;5060789;28;20482;-57
2021/04/17 05:44:44;;;;;;;0.80;0.80;;;;;;;5.32;91.00;100965.53;5066819;28;20859;-57
2021/04/17 05:47:10;;;;;;;0.30;0.30;;;;;;;5.28;92.72;100963.78;5067797;28;20450;-57
2021/04/17 05:49:38;;;;;;;0.30;0.20;;;;;;;5.30;92.10;100964.66;5061801;28;20446;-57
2021/04/17 05:52:04;;;;;;;0.30;0.20;;;;;;;5.47;91.43;100966.47;5059466;28;20882;-56
2021/04/17 05:54:30;;;;;;;0.20;0.20;;;;;;;5.61;91.31;100962.97;5066709;28;20451;-57
2021/04/17 05:56:56;;;;;;;0.30;0.20;;;;;;;5.74;89.84;100955.97;5066139;28;20449;-56
2021/04/17 05:59:22;;;;;;;0.40;0.40;;;;;;;5.76;89.85;100961.28;5060529;28;20559;-55
2021/04/17 06:01:49;;;;;;;0.30;0.10;;;;;;;5.83;89.11;100963.03;5066800;28;20442;-55
2021/04/17 06:04:15;;;;;;;0.30;0.10;;;;;;;5.88;89.58;100959.50;5053260;28;20470;-56
2021/04/17 06:06:41;;;;;;;0.30;0.10;;;;;;;5.83;89.15;100970.94;5063435;28;21002;-57
2021/04/17 06:09:07;;;;;;;0.30;0.20;;;;;;;5.84;90.05;100975.34;5064734;28;20473;-55
2021/04/17 06:11:34;;;;;;;0.30;0.10;;;;;;;5.58;90.03;100970.00;5067419;28;20454;-56
2021/04/17 06:14:01;;;;;;;0.30;0.17;;;;;;;5.62;90.03;100962.13;5063581;28;20450;-56
2021/04/17 06:16:27;;;;;;;0.30;0.10;;;;;;;5.69;90.00;100965.66;5060279;28;20863;-55
2021/04/17 06:19:04;;;;;;;0.20;0.13;;;;;;;5.90;89.13;100972.78;5062541;28;20467;-55
2021/04/17 06:21:30;;;;;;;0.30;0.20;;;;;;;6.02;88.69;100972.75;5066867;28;20446;-56
2021/04/17 06:23:57;;;;;;;0.40;0.40;;;;;;;6.19;88.56;100965.75;5064880;28;20450;-57
2021/04/17 06:26:23;;;;;;;0.30;0.10;;;;;;;6.15;88.32;100971.88;5060270;28;20868;-57
2021/04/17 06:28:50;;;;;;;0.30;0.17;;;;;;;6.10;87.35;100959.59;5062478;28;20470;-57
2021/04/17 06:31:17;;;;;;;0.30;0.10;;;;;;;6.08;88.34;100977.19;5066791;28;20839;-56
2021/04/17 06:33:44;;;;;;;0.30;0.20;;;;;;;6.07;88.65;100976.31;5056288;28;20438;-57
2021/04/17 06:36:10;;;;;;;0.30;0.20;;;;;;;6.09;88.60;100969.25;5066695;28;20505;-57
2021/04/17 06:38:36;;;;;;;0.30;0.20;;;;;;;6.21;88.27;100971.91;5064753;28;20519;-57
2021/04/17 06:41:06;;;;;;;0.30;0.30;;;;;;;6.48;88.01;100972.78;5059645;28;20590;-57
2021/04/17 06:43:35;;;;;;;0.30;0.17;;;;;;;6.50;86.54;100971.00;5060945;28;20447;-57
2021/04/17 06:46:03;;;;;;;0.30;0.20;;;;;;;6.76;86.00;100970.97;5066675;28;20446;-56
2021/04/17 06:48:31;;;;;;;0.30;0.20;;;;;;;6.74;85.85;100973.63;5065699;28;20492;-56
2021/04/17 06:51:02;;;;;;;0.30;0.20;;;;;;;6.52;86.12;100977.16;5066377;28;20530;-56
2021/04/17 06:53:29;;;;;;;0.30;0.20;;;;;;;6.70;85.13;100961.28;5066095;28;20924;-56
2021/04/17 06:55:56;;;;;;;0.30;0.20;;;;;;;6.83;86.56;100964.78;5060172;28;20454;-57
2021/04/17 06:58:22;;;;;;;0.30;0.20;;;;;;;6.94;84.71;100964.75;5059267;28;20475;-57
2021/04/17 07:00:48;;;;;;;0.30;0.20;;;;;;;6.86;85.06;100963.91;5060577;28;20486;-57
2021/04/17 07:03:16;;;;;;;0.30;0.20;;;;;;;7.41;83.65;100954.00;5061900;28;20451;-57
2021/04/17 07:05:42;;;;;;;0.30;0.20;;;;;;;7.59;82.96;100953.91;5065464;28;20529;-57
2021/04/17 07:08:08;;;;;;;0.30;0.20;;;;;;;7.43;82.65;100962.81;5051945;28;20528;-57
2021/04/17 07:10:35;;;;;;;0.30;0.20;;;;;;;7.43;82.33;100949.59;5065454;28;20860;-57
2021/04/17 07:13:08;;;;;;;0.30;0.20;;;;;;;7.52;83.11;100959.22;5066011;28;20879;-57
2021/04/17 07:15:35;;;;;;;0.30;0.10;;;;;;;7.95;80.72;100951.91;5060500;28;20807;-57
2021/04/17 07:18:30;;;;;;;0.30;0.20;;;;;;;8.11;80.29;100944.75;5058926;28;20466;-57
2021/04/17 07:21:01;;;;;;;0.30;0.20;;;;;;;8.60;78.95;100953.13;5060524;28;20494;-57
2021/04/17 07:23:30;;;;;;;0.30;0.20;;;;;;;8.51;77.14;100947.94;5066204;28;20872;-56
2021/04/17 07:26:14;;;;;;;0.30;0.20;;;;;;;8.84;75.77;100952.00;5065573;28;20453;-58
2021/04/17 07:29:15;;;;;;;0.30;0.20;;;;;;;8.80;69.05;100942.34;5064440;28;20482;-57
2021/04/17 07:31:55;;;;;;;0.30;0.10;;;;;;;8.97;66.85;100942.16;5013563;28;20465;-56
2021/04/17 07:34:26;;;;;;;0.30;0.10;;;;;;;9.02;66.09;100953.56;5059021;28;20454;-56
2021/04/17 07:36:58;;;;;;;0.30;0.20;;;;;;;9.09;65.34;100942.88;5063686;28;20534;-56
2021/04/17 07:39:35;;;;;;;0.30;0.20;;;;;;;9.10;63.96;100955.25;5065859;28;20450;-56
2021/04/17 07:42:09;;;;;;;0.30;0.20;;;;;;;9.22;62.96;100945.41;5047865;28;20450;-56
2021/04/17 07:44:38;;;;;;;0.30;0.20;;;;;;;9.14;63.69;100950.78;5061038;28;20934;-56
2021/04/17 07:47:06;;;;;;;0.30;0.13;;;;;;;9.14;61.93;100935.75;5059270;28;20947;-56
2021/04/17 07:49:34;;;;;;;0.30;0.20;;;;;;;9.39;62.17;100944.28;5065240;28;20449;-56
2021/04/17 07:52:00;;;;;;;0.30;0.20;;;;;;;9.46;61.51;100947.75;5065236;28;20450;-57
2021/04/17 07:54:28;;;;;;;0.30;0.20;;;;;;;9.41;60.85;100933.63;5059389;28;20450;-56
2021/04/17 07:56:54;;;;;;;0.30;0.20;;;;;;;9.68;61.40;100950.94;5058442;28;20450;-56
2021/04/17 07:59:24;;;;;;;2.00;2.00;;;;;;;9.75;60.68;100940.25;5065068;28;20451;-56
2021/04/17 08:01:51;;;;;;;0.30;0.20;;;;;;;9.60;58.17;100948.44;5067673;28;20442;-56
2021/04/17 08:04:26;;;;;;;0.30;0.20;;;;;;;9.64;57.14;100946.59;5067752;28;20810;-56
2021/04/17 08:06:54;;;;;;;0.30;0.10;;;;;;;9.88;57.45;100948.03;5054491;28;20877;-57
2021/04/17 08:09:25;;;;;;;0.30;0.10;;;;;;;9.69;55.60;100936.78;5062881;28;20446;-56
2021/04/17 08:11:55;;;;;;;0.30;0.20;;;;;;;9.67;57.04;100946.53;5058374;28;20563;-56
2021/04/17 08:14:23;;;;;;;0.30;0.20;;;;;;;9.39;57.39;100940.75;5058444;28;20451;-56
2021/04/17 08:16:50;;;;;;;0.30;0.20;;;;;;;9.45;58.00;100940.66;5065418;28;20447;-56
2021/04/17 08:19:17;;;;;;;0.30;0.20;;;;;;;9.68;56.92;100943.00;5064457;28;20465;-56
2021/04/17 08:21:46;;;;;;;0.30;0.20;;;;;;;9.68;56.64;100935.03;5058319;28;20461;-56
2021/04/17 08:24:13;;;;;;;0.30;0.20;;;;;;;9.69;57.26;100932.34;5057901;28;20451;-56
2021/04/17 08:26:40;;;;;;;0.30;0.10;;;;;;;9.95;56.21;100936.41;5067173;28;20496;-56
2021/04/17 08:29:07;;;;;;;0.30;0.17;;;;;;;9.79;56.97;100941.94;5068701;28;20478;-57
2021/04/17 08:31:36;;;;;;;0.30;0.20;;;;;;;9.88;57.53;100940.94;5062450;28;20449;-56
2021/04/17 08:34:13;;;;;;;0.30;0.20;;;;;;;9.92;56.07;100933.78;5062398;28;20805;-57
2021/04/17 08:36:48;;;;;;;0.30;0.20;;;;;;;9.86;58.28;100931.22;5052106;28;20453;-56
2021/04/17 08:39:33;;;;;;;0.30;0.10;;;;;;;9.65;57.16;100932.44;5061869;28;20473;-56
2021/04/17 08:42:05;;;;;;;0.30;0.20;;;;;;;9.93;56.04;100927.56;5063890;28;20446;-57
2021/04/17 08:44:37;;;;;;;0.30;0.20;;;;;;;10.33;56.92;100927.84;5069003;28;20539;-56
2021/04/17 08:47:06;;;;;;;0.30;0.20;;;;;;;10.07;56.43;100930.88;5068683;28;20966;-57
2021/04/17 08:49:35;;;;;;;0.30;0.20;;;;;;;10.29;55.99;100936.78;5063105;28;20905;-56
2021/04/17 08:52:24;;;;;;;0.30;0.20;;;;;;;10.40;56.31;100937.44;5061624;28;20454;-56
2021/04/17 08:54:59;;;;;;;0.30;0.20;;;;;;;10.63;56.38;100932.59;5064697;28;20439;-57
2021/04/17 08:57:25;;;;;;;0.30;0.20;;;;;;;10.57;54.86;100926.53;5067429;28;20473;-57
2021/04/17 08:59:56;;;;;;;0.30;0.20;;;;;;;10.75;53.30;100931.50;5062980;28;20493;-57
2021/04/17 09:02:24;;;;;;;0.40;0.33;;;;;;;11.05;53.39;100931.78;5075009;28;20519;-57
2021/04/17 09:05:06;;;;;;;0.30;0.20;;;;;;;10.85;52.36;100933.06;5070301;28;20455;-56
2021/04/17 09:07:35;;;;;;;0.30;0.20;;;;;;;10.92;50.56;100942.69;5054817;28;20497;-57
2021/04/17 09:10:23;;;;;;;0.30;0.20;;;;;;;10.83;50.83;100934.91;5068256;28;20442;-57
2021/04/17 09:13:13;;;;;;;0.30;0.20;;;;;;;11.22;50.81;100921.66;5067169;28;20943;-57
2021/04/17 09:15:51;;;;;;;0.30;0.20;;;;;;;11.22;50.04;100927.00;5066237;28;20443;-57
2021/04/17 09:18:33;;;;;;;0.30;0.20;;;;;;;11.34;49.80;100925.88;5068086;28;20467;-57
2021/04/17 09:21:04;;;;;;;0.30;0.20;;;;;;;11.07;49.92;100924.66;5067943;28;20490;-56
2021/04/17 09:23:43;;;;;;;0.30;0.20;;;;;;;11.14;50.67;100919.19;5068546;28;20848;-56
2021/04/17 09:26:34;;;;;;;0.30;0.20;;;;;;;11.15;50.64;100920.94;5068934;28;20454;-56
2021/04/17 09:29:05;;;;;;;0.30;0.20;;;;;;;11.00;51.32;100915.06;5061393;28;20471;-56
2021/04/17 09:31:36;;;;;;;0.30;0.20;;;;;;;11.13;51.89;100905.91;5068202;28;20816;-57
2021/04/17 09:34:12;;;;;;;0.30;0.20;;;;;;;11.21;51.09;100912.81;5054778;28;20538;-56
2021/04/17 09:36:38;;;;;;;0.30;0.20;;;;;;;11.00;50.13;100910.63;5049860;28;20454;-57
2021/04/17 09:39:24;;;;;;;0.30;0.20;;;;;;;10.98;50.80;100907.13;5045760;28;20525;-57
2021/04/17 09:41:51;;;;;;;0.50;0.50;;;;;;;11.20;50.33;100897.75;5064666;28;20927;-57
2021/04/17 09:44:19;;;;;;;0.30;0.20;;;;;;;11.25;50.55;100897.69;5060737;28;20453;-56
2021/04/17 09:46:47;;;;;;;0.40;0.20;;;;;;;10.90;50.87;100901.06;5063617;28;20875;-56
2021/04/17 09:49:40;;;;;;;0.30;0.20;;;;;;;11.29;51.86;100891.38;5067611;28;20887;-56
2021/04/17 09:52:07;;;;;;;0.30;0.20;;;;;;;11.37;50.91;100888.53;5067507;28;20499;-56
2021/04/17 09:54:34;;;;;;;0.30;0.20;;;;;;;11.17;52.28;100888.97;5061819;28;20461;-56
2021/04/17 09:57:05;;;;;;;0.30;0.20;;;;;;;11.42;51.38;100884.00;5060562;28;20450;-56
2021/04/17 09:59:32;;;;;;;0.30;0.20;;;;;;;11.60;52.24;100888.91;5065225;28;20458;-57
2021/04/17 10:01:59;;;;;;;0.30;0.20;;;;;;;11.64;51.15;100877.25;5070788;28;20451;-57
2021/04/17 10:05:03;;;;;;;0.30;0.20;;;;;;;11.71;51.69;100870.00;5069220;28;20870;-56
2021/04/17 10:07:41;;;;;;;0.30;0.20;;;;;;;12.05;51.63;100868.28;5067883;28;20516;-57
2021/04/17 10:10:09;;;;;;;0.30;0.20;;;;;;;11.89;48.73;100860.72;5060737;28;20532;-57
2021/04/17 10:12:55;;;;;;;0.30;0.20;;;;;;;11.78;48.32;100864.47;5062949;28;20502;-56
2021/04/17 10:15:31;;;;;;;0.30;0.20;;;;;;;11.83;48.61;100865.28;5049385;28;20450;-57
2021/04/17 10:18:00;;;;;;;0.40;0.30;;;;;;;11.48;50.29;100863.41;5060317;28;20490;-56
2021/04/17 10:20:28;;;;;;;0.33;0.23;;;;;;;11.51;48.90;100860.72;5065168;28;20492;-57
2021/04/17 10:22:54;;;;;;;0.30;0.20;;;;;;;11.36;49.47;100861.03;5067105;28;20446;-57
2021/04/17 10:25:41;;;;;;;0.30;0.20;;;;;;;11.35;48.62;100847.75;5062234;28;20461;-57
2021/04/17 10:28:23;;;;;;;0.30;0.20;;;;;;;11.80;48.07;100840.53;5060153;28;20482;-57
2021/04/17 10:31:11;;;;;;;0.30;0.20;;;;;;;11.78;48.33;100842.28;5059001;28;20856;-57
2021/04/17 10:33:43;;;;;;;0.30;0.20;;;;;;;12.11;49.17;100862.81;5045079;28;20835;-57
2021/04/17 10:36:17;;;;;;;0.30;0.20;;;;;;;11.83;47.32;100854.63;5086084;28;20449;-57
2021/04/17 10:38:44;;;;;;;0.30;0.20;;;;;;;12.19;48.55;100830.63;5061389;28;20465;-56
2021/04/17 10:41:17;;;;;;;0.30;0.20;;;;;;;12.74;47.69;100835.28;5066710;28;20608;-57
2021/04/17 10:43:45;;;;;;;0.30;0.20;;;;;;;12.28;44.07;100841.03;5065267;28;20934;-57
2021/04/17 10:46:11;;;;;;;0.30;0.20;;;;;;;12.73;44.51;100838.00;5060303;28;20450;-57
2021/04/17 10:48:45;;;;;;;0.30;0.20;;;;;;;12.23;44.31;100840.31;5059212;28;20474;-57
2021/04/17 10:51:14;;;;;;;0.30;0.20;;;;;;;12.34;43.46;100832.91;5063757;28;20979;-57
2021/04/17 10:53:44;;;;;;;0.30;0.20;;;;;;;12.49;44.05;100836.94;5066494;28;20511;-57
2021/04/17 10:56:19;;;;;;;0.30;0.20;;;;;;;12.25;41.19;100843.78;5062300;28;20486;-57
2021/04/17 10:58:46;;;;;;;0.30;0.20;;;;;;;12.38;42.19;100829.22;5059342;28;20461;-57
2021/04/17 11:01:16;;;;;;;0.30;0.20;;;;;;;12.49;42.20;100828.06;5057182;28;20486;-57
2021/04/17 11:03:45;;;;;;;0.30;0.20;;;;;;;12.69;43.01;100826.56;5065948;28;20528;-57
2021/04/17 11:06:15;;;;;;;0.30;0.20;;;;;;;12.89;42.93;100834.00;5060400;28;20446;-57
2021/04/17 11:08:42;;;;;;;0.30;0.20;;;;;;;12.72;41.33;100821.13;5057670;28;20469;-57
2021/04/17 11:11:10;;;;;;;0.30;0.20;;;;;;;12.63;41.50;100817.88;5060834;28;20955;-56
2021/04/17 11:13:41;;;;;;;0.30;0.20;;;;;;;12.86;41.92;100809.19;5065841;28;20458;-57
2021/04/17 11:16:09;;;;;;;0.30;0.20;;;;;;;12.27;41.63;100815.31;5065597;28;20446;-57
2021/04/17 11:18:40;;;;;;;0.30;0.20;;;;;;;12.29;42.76;100815.25;5058995;28;20466;-56
2021/04/17 11:21:10;;;;;;;0.30;0.20;;;;;;;12.72;42.88;100801.59;5059388;28;20498;-57
2021/04/17 11:23:36;;;;;;;0.30;0.20;;;;;;;12.65;42.81;100811.56;5065313;28;20948;-56
2021/04/17 11:26:25;;;;;;;0.30;0.20;;;;;;;12.58;43.98;100787.78;5066460;28;20509;-56
2021/04/17 11:28:55;;;;;;;0.30;0.20;;;;;;;12.77;44.14;100805.00;5052908;28;20553;-58
2021/04/17 11:31:24;;;;;;;0.30;0.20;;;;;;;12.57;43.25;100802.91;5053021;28;20473;-58
2021/04/17 11:33:52;;;;;;;0.30;0.20;;;;;;;12.67;43.31;100800.84;5052814;28;20498;-58
2021/04/17 11:36:22;;;;;;;0.30;0.20;;;;;;;12.72;43.71;100790.91;5066137;28;20447;-58
2021/04/17 11:38:49;;;;;;;0.30;0.20;;;;;;;12.75;44.83;100791.72;5040145;28;20470;-58
2021/04/17 11:41:15;;;;;;;0.30;0.20;;;;;;;12.73;45.43;100796.19;5052324;28;20490;-58
2021/04/17 11:43:42;;;;;;;0.30;0.20;;;;;;;12.56;44.60;100798.50;5052934;28;20520;-58